Time;durP1;ratioP1;P1;durP2;ratioP2;P2;SDS_P1;SDS_P2;PMS_P1;PMS_P2;Temp;Humidity;BMP_temperature;BMP_pressure;BME280_temperature;BME280_humidity;BME280_pressure;Samples;Min_cycle;Max_cycle;Signal;HPM_P1;HPM_P2
2022/01/10 00:02:11;;;;;;;13.85;4.45;;;1.90;99.90;;;;;;4804699;29;20142;-74
2022/01/10 00:04:36;;;;;;;12.13;4.50;;;1.90;99.90;;;;;;4804201;29;20163;-74
2022/01/10 00:07:02;;;;;;;13.50;4.78;;;1.80;99.90;;;;;;4805384;29;20188;-74
2022/01/10 00:09:28;;;;;;;21.05;4.95;;;1.70;99.90;;;;;;4804649;29;20100;-74
2022/01/10 00:11:53;;;;;;;16.60;4.90;;;1.60;99.90;;;;;;4805067;29;20062;-74
2022/01/10 00:14:19;;;;;;;17.80;5.00;;;1.70;99.90;;;;;;4805104;29;20054;-74
2022/01/10 00:16:44;;;;;;;17.40;5.20;;;1.70;99.90;;;;;;4804307;29;20046;-74
2022/01/10 00:19:10;;;;;;;16.10;5.47;;;1.70;99.90;;;;;;4804491;29;20059;-74
2022/01/10 00:21:36;;;;;;;19.40;6.10;;;1.70;99.90;;;;;;4804188;29;20113;-74
2022/01/10 00:24:01;;;;;;;24.75;5.95;;;1.60;99.90;;;;;;4804211;29;20050;-75
2022/01/10 00:26:27;;;;;;;19.55;6.43;;;1.60;99.90;;;;;;4804359;29;20058;-74
2022/01/10 00:28:52;;;;;;;14.85;6.00;;;1.50;99.90;;;;;;4804711;29;20089;-74
2022/01/10 00:31:18;;;;;;;23.40;7.10;;;1.40;99.90;;;;;;4804504;29;20054;-74
2022/01/10 00:33:44;;;;;;;24.80;8.63;;;1.40;99.90;;;;;;4803663;29;20039;-74
2022/01/10 00:36:09;;;;;;;23.23;7.15;;;1.40;99.90;;;;;;4803132;29;20050;-74
2022/01/10 00:38:35;;;;;;;23.83;6.80;;;1.40;99.90;;;;;;4807149;29;20051;-74
2022/01/10 00:41:01;;;;;;;22.85;7.07;;;1.40;99.90;;;;;;4807042;29;20062;-74
2022/01/10 00:43:32;;;;;;;23.40;7.00;;;1.30;99.90;;;;;;4807974;29;20043;-74
2022/01/10 00:45:58;;;;;;;25.20;7.03;;;1.30;99.90;;;;;;4807961;29;20485;-74
2022/01/10 00:48:24;;;;;;;26.58;6.65;;;1.40;99.90;;;;;;4806759;29;20055;-74
2022/01/10 00:50:49;;;;;;;31.30;8.40;;;1.30;99.90;;;;;;4807085;29;20058;-74
2022/01/10 00:53:15;;;;;;;32.33;7.53;;;1.30;99.90;;;;;;4806659;29;20050;-74
2022/01/10 00:55:40;;;;;;;27.48;7.07;;;1.30;99.90;;;;;;4807277;29;20084;-74
2022/01/10 00:58:06;;;;;;;23.38;7.07;;;1.30;99.90;;;;;;4807338;29;20086;-74
2022/01/10 01:00:32;;;;;;;28.90;7.68;;;1.30;99.90;;;;;;4807230;29;20078;-74
2022/01/10 01:03:00;;;;;;;29.88;7.30;;;1.20;99.90;;;;;;4807847;29;20129;-74
2022/01/10 01:05:26;;;;;;;20.20;6.35;;;1.30;99.90;;;;;;4791271;29;20074;-74
2022/01/10 01:07:52;;;;;;;22.23;6.32;;;1.20;99.90;;;;;;4806606;29;20161;-74
2022/01/10 01:15:56;;;;;;;19.38;6.32;;;1.30;99.90;;;;;;4806278;29;20063;-74
2022/01/10 01:24:06;;;;;;;20.13;5.88;;;1.10;99.90;;;;;;4800520;29;20061;-74
2022/01/10 01:26:37;;;;;;;18.60;6.25;;;1.10;99.90;;;;;;4806787;29;20061;-74
2022/01/10 01:29:04;;;;;;;25.08;6.00;;;1.00;99.90;;;;;;4803620;29;20058;-74
2022/01/10 01:31:29;;;;;;;20.48;5.72;;;1.10;99.90;;;;;;4790843;29;20145;-74
2022/01/10 01:33:55;;;;;;;18.73;5.28;;;1.10;99.90;;;;;;4806673;29;20673;-74
2022/01/10 01:36:23;;;;;;;18.35;5.15;;;1.00;99.90;;;;;;4806930;29;20078;-74
2022/01/10 01:38:49;;;;;;;22.17;5.38;;;1.10;99.90;;;;;;4796836;29;20054;-74
2022/01/10 01:41:36;;;;;;;;;;;;;;;;;;;;;
2022/01/10 01:43:49;;;;;;;18.25;4.97;;;1.00;99.90;;;;;;4805696;29;20676;-74
2022/01/10 01:46:15;;;;;;;18.63;5.38;;;1.00;99.90;;;;;;4806311;29;20161;-74
2022/01/10 01:48:41;;;;;;;14.60;5.35;;;1.10;99.90;;;;;;4805048;29;20138;-75
2022/01/10 01:51:06;;;;;;;17.02;4.85;;;1.00;99.90;;;;;;4805550;29;20051;-74
2022/01/10 01:53:32;;;;;;;20.63;5.13;;;1.00;99.90;;;;;;4806382;29;20474;-74
2022/01/10 01:55:58;;;;;;;24.20;5.10;;;0.90;99.90;;;;;;4806190;29;20119;-74
2022/01/10 01:58:24;;;;;;;17.58;5.07;;;1.00;99.90;;;;;;4806930;29;20467;-74
2022/01/10 02:00:50;;;;;;;20.85;5.50;;;1.00;99.90;;;;;;4806468;29;20097;-74
2022/01/10 02:03:16;;;;;;;18.77;5.43;;;1.00;99.90;;;;;;4806872;29;20051;-74
2022/01/10 02:05:41;;;;;;;24.35;6.10;;;0.90;99.90;;;;;;4806305;29;20105;-74
2022/01/10 02:08:08;;;;;;;23.73;5.85;;;1.00;99.90;;;;;;4805886;29;20394;-74
2022/01/10 02:10:34;;;;;;;26.15;7.07;;;1.00;99.90;;;;;;4806833;29;20085;-74
2022/01/10 02:13:00;;;;;;;20.90;6.55;;;1.00;99.90;;;;;;4806328;29;20482;-74
2022/01/10 02:15:47;;;;;;;23.75;6.35;;;1.00;99.90;;;;;;4806593;29;20420;-74
2022/01/10 02:18:19;;;;;;;28.60;6.75;;;0.90;99.90;;;;;;4805754;29;20051;-74
2022/01/10 02:20:45;;;;;;;26.65;6.75;;;1.00;99.90;;;;;;4804862;29;20055;-74
2022/01/10 02:23:11;;;;;;;25.08;7.60;;;1.10;99.90;;;;;;4806094;29;20058;-74
2022/01/10 02:25:36;;;;;;;32.25;6.47;;;1.00;99.90;;;;;;4806042;29;20563;-74
2022/01/10 02:28:02;;;;;;;22.85;6.82;;;1.10;99.90;;;;;;4805633;29;20085;-75
2022/01/10 02:30:28;;;;;;;19.48;6.80;;;1.00;99.90;;;;;;4806104;29;20564;-74
2022/01/10 02:32:57;;;;;;;24.20;7.35;;;1.10;99.90;;;;;;4805304;29;20051;-74
2022/01/10 02:35:27;;;;;;;22.67;7.70;;;1.00;99.90;;;;;;4806081;29;20126;-74
2022/01/10 02:37:54;;;;;;;22.85;8.02;;;0.90;99.90;;;;;;4804607;29;20055;-74
2022/01/10 02:40:22;;;;;;;29.92;8.10;;;1.00;99.90;;;;;;4804648;29;20125;-74
2022/01/10 02:42:48;;;;;;;19.77;7.90;;;1.00;99.90;;;;;;4804365;29;20057;-74
2022/01/10 02:45:14;;;;;;;21.85;9.00;;;1.00;99.90;;;;;;4804867;29;20406;-74
2022/01/10 02:47:40;;;;;;;29.48;9.70;;;1.00;99.90;;;;;;4805521;29;20055;-74
2022/01/10 02:50:05;;;;;;;25.30;10.30;;;0.90;99.90;;;;;;4805495;29;20514;-74
2022/01/10 02:52:31;;;;;;;25.35;10.02;;;1.00;99.90;;;;;;4805903;29;20130;-74
2022/01/10 02:55:00;;;;;;;30.60;10.80;;;1.10;99.90;;;;;;4803893;29;20497;-74
2022/01/10 02:57:29;;;;;;;30.23;11.95;;;1.00;99.90;;;;;;4805822;29;20058;-74
2022/01/10 02:59:55;;;;;;;34.50;10.60;;;1.10;99.90;;;;;;4804615;29;20051;-74
2022/01/10 03:02:23;;;;;;;27.25;11.20;;;1.00;99.90;;;;;;4805924;29;20126;-74
2022/01/10 03:04:49;;;;;;;32.80;10.93;;;1.20;99.90;;;;;;4804919;29;20055;-74
2022/01/10 03:07:18;;;;;;;23.50;10.48;;;1.10;99.90;;;;;;4805609;29;20057;-74
2022/01/10 03:09:43;;;;;;;27.42;11.23;;;1.30;99.90;;;;;;4805647;29;20458;-74
2022/01/10 03:12:09;;;;;;;31.10;12.02;;;1.10;99.90;;;;;;4804158;29;20133;-74
2022/01/10 03:14:36;;;;;;;32.88;11.57;;;1.20;99.90;;;;;;4789379;29;20059;-74
2022/01/10 03:17:02;;;;;;;31.83;12.15;;;1.30;99.90;;;;;;4802937;29;20054;-74
2022/01/10 03:19:28;;;;;;;26.50;11.32;;;1.20;99.90;;;;;;4805051;29;20046;-74
2022/01/10 03:21:53;;;;;;;30.33;11.35;;;1.40;99.90;;;;;;4804916;29;20047;-74
2022/01/10 03:24:19;;;;;;;38.50;11.73;;;1.10;99.90;;;;;;4805071;29;20457;-74
2022/01/10 03:26:45;;;;;;;23.42;10.90;;;1.30;99.90;;;;;;4805252;29;20055;-74
2022/01/10 03:29:10;;;;;;;31.98;11.30;;;1.20;99.90;;;;;;4804534;29;20054;-74
2022/01/10 03:31:36;;;;;;;31.73;11.63;;;1.30;99.90;;;;;;4803798;29;20080;-75
2022/01/10 03:34:02;;;;;;;32.40;11.45;;;1.20;99.90;;;;;;4802979;29;20047;-74
2022/01/10 03:36:28;;;;;;;36.35;12.52;;;1.30;99.90;;;;;;4805269;29;20179;-74
2022/01/10 03:38:53;;;;;;;34.00;12.82;;;1.20;99.90;;;;;;4804777;29;20062;-74
2022/01/10 03:41:19;;;;;;;27.60;11.95;;;1.20;99.90;;;;;;4789242;29;20089;-74
2022/01/10 03:43:44;;;;;;;32.47;12.50;;;1.20;99.90;;;;;;4805125;29;20043;-75
2022/01/10 03:46:10;;;;;;;26.45;11.60;;;1.20;99.90;;;;;;4800410;29;20498;-74
2022/01/10 03:48:36;;;;;;;33.88;11.70;;;1.30;99.90;;;;;;4804936;29;20054;-74
2022/01/10 03:51:01;;;;;;;26.45;11.65;;;1.20;99.90;;;;;;4803501;29;20152;-74
2022/01/10 03:53:27;;;;;;;31.33;11.52;;;1.20;99.90;;;;;;4797983;29;20058;-74
2022/01/10 03:55:53;;;;;;;26.13;11.73;;;1.10;99.90;;;;;;4802781;29;20046;-74
2022/01/10 03:58:18;;;;;;;28.92;11.38;;;1.10;99.90;;;;;;4804451;29;20388;-74
2022/01/10 04:00:44;;;;;;;27.23;11.98;;;0.90;99.90;;;;;;4804370;29;20082;-74
2022/01/10 04:03:10;;;;;;;30.55;12.73;;;0.90;99.90;;;;;;4803705;29;20099;-74
2022/01/10 04:05:36;;;;;;;28.52;12.07;;;1.00;99.90;;;;;;4804239;29;20043;-74
2022/01/10 04:08:02;;;;;;;26.38;12.85;;;0.90;99.90;;;;;;4803943;29;20129;-74
2022/01/10 04:10:27;;;;;;;28.67;12.60;;;1.00;99.90;;;;;;4771115;30;20059;-74
2022/01/10 04:12:53;;;;;;;26.58;12.02;;;0.90;99.90;;;;;;4804794;29;20061;-74
2022/01/10 04:15:19;;;;;;;29.33;12.65;;;1.10;99.90;;;;;;4808032;29;20477;-74
2022/01/10 04:17:45;;;;;;;27.95;11.55;;;1.10;99.90;;;;;;4806891;29;20086;-74
2022/01/10 04:20:11;;;;;;;25.73;11.73;;;1.00;99.90;;;;;;4806197;29;20086;-74
2022/01/10 04:22:36;;;;;;;31.15;13.15;;;1.00;99.90;;;;;;4805643;29;20043;-74
2022/01/10 04:25:04;;;;;;;30.17;11.93;;;0.90;99.90;;;;;;4806234;29;20471;-74
2022/01/10 04:27:32;;;;;;;27.95;12.07;;;0.90;99.90;;;;;;4807645;29;20481;-74
2022/01/10 04:29:58;;;;;;;29.30;11.18;;;0.90;99.90;;;;;;4806428;29;20422;-74
2022/01/10 04:32:27;;;;;;;27.33;11.73;;;0.80;99.90;;;;;;4808327;29;20051;-74
2022/01/10 04:34:52;;;;;;;31.98;11.75;;;0.80;99.90;;;;;;4808040;29;20461;-74
2022/01/10 04:37:18;;;;;;;32.83;11.77;;;0.80;99.90;;;;;;4807298;29;20078;-74
2022/01/10 04:39:43;;;;;;;24.77;11.38;;;0.80;99.90;;;;;;4807034;29;20086;-74
2022/01/10 04:42:09;;;;;;;25.50;12.20;;;0.80;99.90;;;;;;4807912;29;20097;-74
2022/01/10 04:44:34;;;;;;;32.72;11.93;;;0.70;99.90;;;;;;4807564;29;20479;-74
2022/01/10 04:47:00;;;;;;;28.33;12.38;;;0.70;99.90;;;;;;4808045;29;20047;-74
2022/01/10 04:49:26;;;;;;;31.52;12.18;;;0.60;99.90;;;;;;4807219;29;20058;-74
2022/01/10 04:51:53;;;;;;;27.00;12.50;;;0.70;99.90;;;;;;4807744;29;20111;-73
2022/01/10 04:54:19;;;;;;;30.08;12.77;;;0.70;99.90;;;;;;4806216;29;20046;-74
2022/01/10 04:56:45;;;;;;;25.40;11.80;;;0.70;99.90;;;;;;4807239;29;20122;-74
2022/01/10 04:59:12;;;;;;;32.33;12.40;;;0.70;99.90;;;;;;4790558;29;20090;-74
2022/01/10 05:01:38;;;;;;;23.33;11.93;;;0.60;99.90;;;;;;4806300;29;20528;-74
2022/01/10 05:04:04;;;;;;;42.53;13.25;;;0.50;99.90;;;;;;4807586;29;20047;-74
2022/01/10 05:06:29;;;;;;;35.70;12.95;;;0.50;99.90;;;;;;4808018;29;20112;-74
2022/01/10 05:08:55;;;;;;;36.78;14.35;;;0.60;99.90;;;;;;4806069;29;20051;-74
2022/01/10 05:11:21;;;;;;;23.60;12.40;;;0.60;99.90;;;;;;4807367;29;20058;-74
2022/01/10 05:13:47;;;;;;;35.13;13.07;;;0.60;99.90;;;;;;4807049;29;20054;-74
2022/01/10 05:16:14;;;;;;;28.25;12.80;;;0.60;99.90;;;;;;4806416;29;20481;-74
2022/01/10 05:18:39;;;;;;;24.42;10.88;;;0.50;99.90;;;;;;4807236;29;20051;-74
2022/01/10 05:21:05;;;;;;;23.08;11.60;;;0.50;99.90;;;;;;4807054;29;20149;-74
2022/01/10 05:23:31;;;;;;;26.92;12.70;;;0.50;99.90;;;;;;4806040;29;20065;-74
2022/01/10 05:25:57;;;;;;;34.88;14.50;;;0.40;99.90;;;;;;4806955;29;20051;-74
2022/01/10 05:28:22;;;;;;;32.03;14.82;;;0.50;99.90;;;;;;4806618;29;20050;-74
2022/01/10 05:30:49;;;;;;;33.28;14.40;;;0.50;99.90;;;;;;4806776;29;20141;-74
2022/01/10 05:33:15;;;;;;;36.50;15.75;;;0.40;99.90;;;;;;4806600;29;20108;-74
2022/01/10 05:35:44;;;;;;;37.33;15.13;;;0.50;99.90;;;;;;4807021;29;20406;-74
2022/01/10 05:38:09;;;;;;;35.20;15.43;;;0.50;99.90;;;;;;4805899;29;20061;-75
2022/01/10 05:40:35;;;;;;;31.27;14.20;;;0.50;99.90;;;;;;4806975;29;20042;-74
2022/01/10 05:43:01;;;;;;;34.45;15.75;;;0.40;99.90;;;;;;4807328;29;20051;-74
2022/01/10 05:45:26;;;;;;;34.45;16.77;;;0.40;99.90;;;;;;4803045;29;20394;-75
2022/01/10 05:47:52;;;;;;;34.58;15.63;;;0.40;99.90;;;;;;4805558;29;20088;-74
2022/01/10 05:50:20;;;;;;;35.83;15.70;;;0.50;99.90;;;;;;4804904;29;20055;-77
2022/01/10 05:52:46;;;;;;;35.40;14.52;;;0.40;99.90;;;;;;4804871;29;20510;-78
2022/01/10 05:55:12;;;;;;;34.40;16.10;;;0.40;99.90;;;;;;4790395;29;20505;-80
2022/01/10 05:57:38;;;;;;;38.22;16.70;;;0.40;99.90;;;;;;4806321;29;20059;-78
2022/01/10 06:00:04;;;;;;;26.55;14.43;;;0.50;99.90;;;;;;4805325;29;20055;-77
2022/01/10 06:02:30;;;;;;;36.70;16.58;;;0.40;99.90;;;;;;4804540;29;20125;-75
2022/01/10 06:04:59;;;;;;;32.22;16.08;;;0.50;99.90;;;;;;4806638;29;20160;-74
2022/01/10 06:07:24;;;;;;;33.67;16.70;;;0.40;99.90;;;;;;4805113;29;20059;-75
2022/01/10 06:09:50;;;;;;;38.72;18.17;;;0.40;99.90;;;;;;4806732;29;20051;-75
2022/01/10 06:12:16;;;;;;;37.10;17.98;;;0.30;99.90;;;;;;4799778;29;20054;-75
2022/01/10 06:14:41;;;;;;;41.53;18.33;;;0.30;99.90;;;;;;4804984;29;20043;-75
2022/01/10 06:17:07;;;;;;;30.58;16.45;;;0.40;99.90;;;;;;4806474;29;20391;-75
2022/01/10 06:19:32;;;;;;;25.70;15.45;;;0.40;99.90;;;;;;4804520;29;20046;-75
2022/01/10 06:21:58;;;;;;;26.80;15.80;;;0.40;99.90;;;;;;4805807;29;20063;-75
2022/01/10 06:24:24;;;;;;;32.92;14.40;;;0.40;99.90;;;;;;4805594;29;20054;-75
2022/01/10 06:26:49;;;;;;;22.13;12.75;;;0.40;99.90;;;;;;4806279;29;20051;-75
2022/01/10 06:29:15;;;;;;;34.00;14.02;;;0.30;99.90;;;;;;4806086;29;20067;-75
2022/01/10 06:31:40;;;;;;;35.38;14.68;;;0.30;99.90;;;;;;4804634;29;20103;-75
2022/01/10 06:34:06;;;;;;;30.90;15.07;;;0.30;99.90;;;;;;4805309;29;20397;-75
2022/01/10 06:36:32;;;;;;;38.55;15.85;;;0.30;99.90;;;;;;4804646;29;20051;-75
2022/01/10 06:38:57;;;;;;;27.75;16.58;;;0.20;99.90;;;;;;4806172;29;20111;-75
2022/01/10 06:41:23;;;;;;;26.90;15.55;;;0.20;99.90;;;;;;4805402;29;20047;-75
2022/01/10 06:43:48;;;;;;;28.90;15.05;;;0.10;99.90;;;;;;4806000;29;20398;-75
2022/01/10 06:46:14;;;;;;;26.27;14.80;;;0.30;99.90;;;;;;4804688;29;20439;-75
2022/01/10 06:48:40;;;;;;;27.08;13.43;;;0.20;99.90;;;;;;4805194;29;20784;-75
2022/01/10 06:51:05;;;;;;;33.83;15.50;;;0.10;99.90;;;;;;4805777;29;20054;-75
2022/01/10 06:53:31;;;;;;;30.70;15.00;;;0.10;99.90;;;;;;4805918;29;20054;-75
2022/01/10 06:55:56;;;;;;;32.55;14.85;;;0.10;99.90;;;;;;4805983;29;20054;-75
2022/01/10 06:58:22;;;;;;;31.85;14.27;;;0.10;99.90;;;;;;4805377;29;20062;-75
2022/01/10 07:00:48;;;;;;;33.05;15.13;;;0.10;99.90;;;;;;4806076;29;20081;-75
2022/01/10 07:03:13;;;;;;;27.90;15.52;;;0.10;99.90;;;;;;4805882;29;20047;-75
2022/01/10 07:05:39;;;;;;;28.10;14.90;;;0.10;99.90;;;;;;4805410;29;20046;-75
2022/01/10 07:08:05;;;;;;;22.92;14.93;;;0.10;99.90;;;;;;4805915;29;20043;-75
2022/01/10 07:10:30;;;;;;;26.13;14.98;;;0.10;99.90;;;;;;4805513;29;20043;-75
2022/01/10 07:12:56;;;;;;;40.45;15.65;;;0.00;99.90;;;;;;4819991;29;20047;-75
2022/01/10 07:15:24;;;;;;;32.35;16.95;;;0.00;99.90;;;;;;4804899;29;20059;-75
2022/01/10 07:17:50;;;;;;;31.92;16.13;;;0.00;99.90;;;;;;4805472;29;20392;-75
2022/01/10 07:20:16;;;;;;;28.00;15.70;;;0.10;99.90;;;;;;4804144;29;20055;-75
2022/01/10 07:22:42;;;;;;;31.58;17.60;;;0.10;99.90;;;;;;4805763;29;20090;-75
2022/01/10 07:25:08;;;;;;;32.70;17.05;;;0.00;99.90;;;;;;4805544;29;20054;-75
2022/01/10 07:27:34;;;;;;;26.73;17.35;;;0.00;99.90;;;;;;4804055;29;20047;-75
2022/01/10 07:30:01;;;;;;;30.98;16.60;;;0.10;99.90;;;;;;4805376;29;20051;-75
2022/01/10 07:32:29;;;;;;;32.20;16.92;;;0.00;99.90;;;;;;4803302;29;20062;-75
2022/01/10 07:34:58;;;;;;;27.77;15.68;;;0.10;99.90;;;;;;4803976;29;20047;-75
2022/01/10 07:37:24;;;;;;;26.00;15.82;;;0.20;99.90;;;;;;4804100;29;20093;-75
2022/01/10 07:39:50;;;;;;;25.70;15.35;;;0.00;99.90;;;;;;4805061;29;20086;-75
2022/01/10 07:42:15;;;;;;;25.20;15.73;;;0.10;99.90;;;;;;4805529;29;20061;-75
2022/01/10 07:44:41;;;;;;;26.42;16.30;;;0.10;99.90;;;;;;4804817;29;20049;-77
2022/01/10 07:47:08;;;;;;;23.48;14.93;;;0.00;99.90;;;;;;4804511;29;20054;-77
2022/01/10 07:49:34;;;;;;;26.15;14.95;;;0.00;99.90;;;;;;4805089;29;20126;-77
2022/01/10 07:52:00;;;;;;;31.55;16.83;;;-0.10;99.90;;;;;;4804327;29;20460;-76
2022/01/10 07:54:26;;;;;;;26.63;16.02;;;0.00;99.90;;;;;;4804436;29;20102;-76
2022/01/10 07:56:51;;;;;;;29.05;16.67;;;-0.10;99.90;;;;;;4805352;29;20055;-76
2022/01/10 07:59:17;;;;;;;33.63;18.73;;;0.00;99.90;;;;;;4805304;29;20063;-76
2022/01/10 08:01:45;;;;;;;29.65;17.65;;;-0.10;99.90;;;;;;4803839;29;20514;-75
2022/01/10 08:04:11;;;;;;;30.27;18.00;;;0.10;99.90;;;;;;4805346;29;20114;-75
2022/01/10 08:06:36;;;;;;;37.50;18.45;;;0.00;99.90;;;;;;4803971;29;20383;-76
2022/01/10 08:09:02;;;;;;;35.40;18.10;;;0.00;99.90;;;;;;4805387;29;20054;-76
2022/01/10 08:11:28;;;;;;;43.72;19.38;;;0.00;99.90;;;;;;4798881;29;20063;-76
2022/01/10 08:13:54;;;;;;;36.17;19.60;;;0.00;99.90;;;;;;4803670;29;20046;-75
2022/01/10 08:16:20;;;;;;;32.47;17.75;;;0.00;99.90;;;;;;4803638;29;20047;-75
2022/01/10 08:18:45;;;;;;;34.83;19.67;;;0.00;99.90;;;;;;4803941;29;20053;-76
2022/01/10 08:21:11;;;;;;;33.35;19.17;;;0.00;99.90;;;;;;4803829;29;20047;-76
2022/01/10 08:23:36;;;;;;;38.67;20.02;;;0.20;99.90;;;;;;4803109;29;20129;-76
2022/01/10 08:26:03;;;;;;;40.75;22.00;;;0.20;99.90;;;;;;4803396;29;20443;-76
2022/01/10 08:28:30;;;;;;;46.97;22.38;;;0.20;99.90;;;;;;4804988;29;20120;-75
2022/01/10 08:30:56;;;;;;;39.13;21.95;;;0.20;99.90;;;;;;4804133;29;20051;-75
2022/01/10 08:33:21;;;;;;;39.58;22.15;;;0.10;99.90;;;;;;4803640;29;20137;-76
2022/01/10 08:35:48;;;;;;;42.10;23.25;;;0.20;99.90;;;;;;4802450;29;20141;-76
2022/01/10 08:38:14;;;;;;;44.00;22.42;;;0.20;99.90;;;;;;4804528;29;20121;-76
2022/01/10 08:40:39;;;;;;;35.58;21.83;;;0.20;99.90;;;;;;4803021;29;20050;-76
2022/01/10 08:43:09;;;;;;;40.70;21.83;;;0.10;99.90;;;;;;4788299;29;20050;-75
2022/01/10 08:45:35;;;;;;;33.22;19.73;;;0.10;99.90;;;;;;4804288;29;20486;-76
2022/01/10 08:48:00;;;;;;;42.83;21.52;;;0.10;99.90;;;;;;4804293;29;20095;-76
2022/01/10 08:50:27;;;;;;;34.03;19.30;;;0.20;99.90;;;;;;4804830;29;20047;-76
2022/01/10 08:52:52;;;;;;;35.67;20.55;;;0.20;99.90;;;;;;4803162;29;20070;-76
2022/01/10 08:55:18;;;;;;;31.10;19.10;;;0.30;99.90;;;;;;4804999;29;20039;-75
2022/01/10 08:57:44;;;;;;;28.70;19.40;;;0.30;99.90;;;;;;4803014;29;20126;-76
2022/01/10 09:00:10;;;;;;;34.85;19.58;;;0.20;99.90;;;;;;4808166;29;20418;-76
2022/01/10 09:02:36;;;;;;;37.45;20.38;;;0.20;99.90;;;;;;4807984;29;20494;-76
2022/01/10 09:05:02;;;;;;;31.33;19.17;;;0.20;99.90;;;;;;4806428;29;20058;-76
2022/01/10 09:07:28;;;;;;;34.95;19.73;;;0.30;99.90;;;;;;4806522;29;20413;-75
2022/01/10 09:09:53;;;;;;;38.47;20.20;;;0.30;99.90;;;;;;4807353;29;20050;-76
2022/01/10 09:12:19;;;;;;;37.63;19.52;;;0.30;99.90;;;;;;4807914;29;20456;-76
2022/01/10 09:14:45;;;;;;;33.17;18.65;;;0.30;99.90;;;;;;4807083;29;20042;-76
2022/01/10 09:17:10;;;;;;;32.05;18.17;;;0.40;99.90;;;;;;4807808;29;20113;-76
2022/01/10 09:19:36;;;;;;;23.80;17.52;;;0.40;99.90;;;;;;4806370;29;20490;-77
2022/01/10 09:22:02;;;;;;;33.65;17.10;;;0.30;99.90;;;;;;4807517;29;20388;-77
2022/01/10 09:24:28;;;;;;;29.13;18.33;;;0.40;99.90;;;;;;4807566;29;20462;-76
2022/01/10 09:26:53;;;;;;;32.38;18.35;;;0.40;99.90;;;;;;4807040;29;20418;-76
2022/01/10 09:29:19;;;;;;;38.38;18.67;;;0.30;99.90;;;;;;4814006;29;20042;-76
2022/01/10 09:31:45;;;;;;;36.92;18.90;;;0.40;99.90;;;;;;4825556;29;20106;-77
2022/01/10 09:34:11;;;;;;;32.80;18.55;;;0.50;99.90;;;;;;4814110;29;20075;-76
2022/01/10 09:36:37;;;;;;;37.65;18.45;;;0.50;99.90;;;;;;4807352;29;20506;-76
2022/01/10 09:39:03;;;;;;;28.30;18.02;;;0.50;99.90;;;;;;4806438;29;20063;-77
2022/01/10 09:41:28;;;;;;;33.00;17.67;;;0.40;99.90;;;;;;4807642;29;20111;-76
2022/01/10 09:43:57;;;;;;;34.45;18.95;;;0.50;99.90;;;;;;4807097;29;20443;-76
2022/01/10 09:46:23;;;;;;;26.60;17.73;;;0.60;99.90;;;;;;4817728;29;20125;-76
2022/01/10 09:48:49;;;;;;;33.15;17.35;;;0.70;99.90;;;;;;4823785;29;20062;-76
2022/01/10 09:51:14;;;;;;;31.60;18.10;;;0.60;99.90;;;;;;4824408;29;20098;-76
2022/01/10 09:53:40;;;;;;;40.05;18.83;;;0.70;99.90;;;;;;4825469;29;20043;-76
2022/01/10 09:56:06;;;;;;;36.30;18.23;;;0.50;99.90;;;;;;4823888;29;20057;-76
2022/01/10 09:58:31;;;;;;;25.80;17.35;;;0.80;99.90;;;;;;4825547;29;20054;-76
2022/01/10 10:00:58;;;;;;;36.00;19.35;;;0.70;99.90;;;;;;4824995;29;20107;-76
2022/01/10 10:03:24;;;;;;;28.30;17.73;;;0.70;99.90;;;;;;4809361;29;20402;-76
2022/01/10 10:05:56;;;;;;;28.98;17.40;;;0.90;99.90;;;;;;4824806;29;20061;-77
2022/01/10 10:08:22;;;;;;;29.33;17.40;;;0.90;99.90;;;;;;4824085;29;20126;-76
2022/01/10 10:10:49;;;;;;;27.30;17.75;;;0.90;99.90;;;;;;4823055;29;20054;-75
2022/01/10 10:13:15;;;;;;;36.97;19.30;;;0.80;99.90;;;;;;4823397;29;20490;-75
2022/01/10 10:15:41;;;;;;;33.58;19.80;;;0.90;99.90;;;;;;4823790;29;20053;-75
2022/01/10 10:18:08;;;;;;;32.97;20.08;;;1.00;99.90;;;;;;4808461;29;20127;-76
2022/01/10 10:20:34;;;;;;;31.40;19.90;;;0.90;99.90;;;;;;4825089;29;20107;-76
2022/01/10 10:22:59;;;;;;;36.20;21.67;;;1.00;99.90;;;;;;4813379;29;20055;-75
2022/01/10 10:25:25;;;;;;;43.78;23.25;;;1.00;99.90;;;;;;4805005;29;20082;-75
2022/01/10 10:27:51;;;;;;;37.92;22.33;;;1.00;99.90;;;;;;4804913;29;20449;-76
2022/01/10 10:30:27;;;;;;;47.55;23.42;;;1.20;99.90;;;;;;4804733;29;20046;-75
2022/01/10 10:33:09;;;;;;;38.15;22.15;;;1.30;99.90;;;;;;4805188;29;20047;-76
2022/01/10 10:35:35;;;;;;;43.35;24.70;;;1.30;99.90;;;;;;4805996;29;20047;-75
2022/01/10 10:38:01;;;;;;;44.53;23.92;;;1.30;99.90;;;;;;4806073;29;20059;-75
2022/01/10 10:40:29;;;;;;;39.70;23.25;;;1.40;99.90;;;;;;4805541;29;20098;-75
2022/01/10 10:42:57;;;;;;;46.05;23.50;;;1.30;99.90;;;;;;4798358;29;20533;-75
2022/01/10 10:45:24;;;;;;;48.63;24.20;;;1.40;99.90;;;;;;4804799;29;20054;-75
2022/01/10 10:47:50;;;;;;;48.30;26.92;;;1.50;99.90;;;;;;4805952;29;20497;-75
2022/01/10 10:50:15;;;;;;;50.28;25.15;;;1.40;99.90;;;;;;4796394;29;20046;-75
2022/01/10 10:52:41;;;;;;;46.55;24.80;;;1.50;99.90;;;;;;4804989;29;20054;-75
2022/01/10 10:55:12;;;;;;;38.05;21.75;;;1.60;99.90;;;;;;4804940;29;20410;-75
2022/01/10 10:57:37;;;;;;;40.70;21.85;;;1.70;99.90;;;;;;4804255;29;20062;-76
2022/01/10 11:00:06;;;;;;;41.88;21.17;;;1.70;99.90;;;;;;4788719;29;20063;-76
2022/01/10 11:02:31;;;;;;;31.58;20.23;;;1.90;99.90;;;;;;4804320;29;20061;-76
2022/01/10 11:05:01;;;;;;;38.40;22.45;;;2.00;99.90;;;;;;4803381;29;20047;-75
2022/01/10 11:07:31;;;;;;;42.92;21.13;;;1.90;99.90;;;;;;4804542;29;20100;-75
2022/01/10 11:09:57;;;;;;;38.97;20.70;;;2.10;99.90;;;;;;4784788;29;20055;-76
2022/01/10 11:12:23;;;;;;;35.42;21.77;;;2.20;99.90;;;;;;4788566;29;20051;-76
2022/01/10 11:14:49;;;;;;;44.47;21.95;;;2.40;99.90;;;;;;4789485;29;20055;-75
2022/01/10 11:17:22;;;;;;;49.38;23.33;;;2.30;99.90;;;;;;4804030;29;20054;-76
2022/01/10 11:20:08;;;;;;;41.75;22.08;;;2.50;99.90;;;;;;4804474;29;20059;-75
2022/01/10 11:22:34;;;;;;;35.17;19.35;;;2.50;99.90;;;;;;4805105;29;20545;-76
2022/01/10 11:24:59;;;;;;;35.85;20.92;;;2.70;99.90;;;;;;4805303;29;20046;-75
2022/01/10 11:27:40;;;;;;;29.42;19.00;;;2.80;99.90;;;;;;4805155;29;20051;-75
2022/01/10 11:30:24;;;;;;;32.00;19.40;;;2.80;99.90;;;;;;4804259;29;20047;-76
2022/01/10 11:33:04;;;;;;;40.45;21.95;;;2.90;99.90;;;;;;4805036;29;20062;-76
2022/01/10 11:35:32;;;;;;;35.60;20.98;;;2.80;99.90;;;;;;4805290;29;20042;-76
2022/01/10 11:37:57;;;;;;;36.10;21.13;;;2.90;99.90;;;;;;4805307;29;20127;-76
2022/01/10 11:40:23;;;;;;;40.22;20.35;;;3.00;99.90;;;;;;4804895;29;20130;-76
2022/01/10 11:42:55;;;;;;;31.65;20.15;;;3.10;99.90;;;;;;4803937;29;20602;-76
2022/01/10 11:45:20;;;;;;;37.22;19.88;;;3.20;99.90;;;;;;4804925;29;20277;-76
2022/01/10 11:48:01;;;;;;;33.92;19.42;;;3.20;99.90;;;;;;4805287;29;20509;-76
2022/01/10 11:50:27;;;;;;;;;;;3.30;99.90;;;;;;4804463;29;20094;-76
2022/01/10 11:52:56;;;;;;;36.20;19.45;;;3.30;99.90;;;;;;4803970;29;19983;-76
2022/01/10 11:55:42;;;;;;;39.35;20.08;;;3.30;99.90;;;;;;4804089;29;20070;-76
2022/01/10 11:58:18;;;;;;;29.10;19.42;;;3.50;99.90;;;;;;4803630;29;20421;-77
2022/01/10 12:00:44;;;;;;;30.90;19.48;;;3.50;99.90;;;;;;4804500;29;20047;-76
2022/01/10 12:03:10;;;;;;;28.00;19.38;;;3.50;99.90;;;;;;4804668;29;20521;-77
2022/01/10 12:05:35;;;;;;;30.00;19.13;;;3.50;99.90;;;;;;4804239;29;20089;-76
2022/01/10 12:08:04;;;;;;;33.42;19.58;;;3.60;99.90;;;;;;4805240;29;20062;-77
2022/01/10 12:10:31;;;;;;;34.58;18.88;;;3.50;99.90;;;;;;4803790;29;20129;-76
2022/01/10 12:13:14;;;;;;;33.58;19.77;;;3.60;99.90;;;;;;4804136;29;20051;-76
2022/01/10 12:15:40;;;;;;;36.78;20.75;;;3.70;99.90;;;;;;4804255;29;20046;-76
2022/01/10 12:18:06;;;;;;;31.00;19.52;;;3.70;99.90;;;;;;4805459;29;20203;-76
2022/01/10 12:20:32;;;;;;;31.60;19.92;;;3.70;99.90;;;;;;4804988;29;20051;-77
2022/01/10 12:22:58;;;;;;;38.53;21.60;;;3.70;99.90;;;;;;4804108;29;20375;-76
2022/01/10 12:25:23;;;;;;;35.28;22.13;;;3.70;99.90;;;;;;4788388;29;20245;-77
2022/01/10 12:27:57;;;;;;;36.05;19.10;;;3.70;99.90;;;;;;4804039;29;20047;-76
2022/01/10 12:30:22;;;;;;;31.00;17.50;;;3.70;99.90;;;;;;4803906;29;20054;-76
2022/01/10 12:32:48;;;;;;;29.38;19.02;;;3.80;99.90;;;;;;4804610;29;20055;-76
2022/01/10 12:35:15;;;;;;;30.88;18.67;;;3.90;99.90;;;;;;4808326;29;20406;-77
2022/01/10 12:37:41;;;;;;;29.77;19.38;;;3.80;99.90;;;;;;4792709;29;20566;-76
2022/01/10 12:40:07;;;;;;;27.75;17.35;;;3.80;99.90;;;;;;4807711;29;20050;-76
2022/01/10 12:42:33;;;;;;;32.35;19.88;;;3.90;99.90;;;;;;4806654;29;20533;-76
2022/01/10 12:44:59;;;;;;;38.13;19.95;;;4.00;99.90;;;;;;4808615;29;20058;-76
2022/01/10 12:47:25;;;;;;;28.58;19.15;;;3.80;99.90;;;;;;4806970;29;20054;-76
2022/01/10 12:49:54;;;;;;;29.95;19.92;;;3.90;99.90;;;;;;4807404;29;20103;-76